This is the latest recevied weather packets stored in our database for station/object K5KVN. If no packets are shown the sender has not sent any weather packets the latest 10 day(s).
| Time | Temp. | Humidity | Pressure | Rain* | Wind** | Luminosity | Snow |
|---|---|---|---|---|---|---|---|
| 1787794033 | 26.11° C | 73% | 1016.2 hPa | 0 mm | - | - | - |
| 1787793435 | 26.67° C | 72% | 1016.1 hPa | 0 mm | - | - | - |
| 1787792833 | 26.67° C | 71% | 1016.1 hPa | 0 mm | - | - | - |
| 1787792234 | 27.22° C | 68% | 1016.3 hPa | 0 mm | - | - | - |
| 1787791637 | 27.78° C | 66% | 1016.1 hPa | 0 mm | - | - | - |
| 1787791091 | 28.33° C | 64% | 1015.8 hPa | 0 mm | - | - | - |
| 1787790431 | 28.89° C | 63% | 1015.6 hPa | 0 mm | - | - | - |
| 1787789831 | 29.44° C | 62% | 1015.5 hPa | 0 mm | - | - | - |
| 1787789231 | 29.44° C | 62% | 1015.5 hPa | 0 mm | - | - | - |
| 1787788632 | 29.44° C | 61% | 1015.5 hPa | 0 mm | - | - | - |
| 1787788091 | 30° C | 60% | 1015.4 hPa | 0 mm | - | - | - |
| 1787787486 | 30° C | 60% | 1015.4 hPa | 0 mm | - | - | - |
| 1787786827 | 29.44° C | 60% | 1015.4 hPa | 0 mm | - | - | - |
| 1787786286 | 30° C | 59% | 1015.4 hPa | 0 mm | - | - | - |
| 1787785626 | 30° C | 57% | 1015.5 hPa | 0 mm | - | - | - |
| 1787785026 | 31.11° C | 54% | 1015.6 hPa | 0 mm | - | - | - |
| 1787784425 | 35° C | 46% | 1015.6 hPa | 0 mm | - | - | - |
| 1787783826 | 35.56° C | 45% | 1015 hPa | 0 mm | - | - | - |
| 1787783226 | 35.56° C | 46% | 1014.8 hPa | 0 mm | - | - | - |
| 1787782624 | 35.56° C | 45% | 1014.7 hPa | 0 mm | - | - | - |
| 1787782025 | 36.11° C | 43% | 1014.4 hPa | 0 mm | - | - | - |
| 1787781486 | 36.67° C | 45% | 1014.5 hPa | 0 mm | - | - | - |
| 1787780825 | 36.67° C | 44% | 1014.2 hPa | 0 mm | - | - | - |
| 1787780225 | 36.67° C | 44% | 1014.2 hPa | 0 mm | - | - | - |
| 1787779626 | 36.67° C | 44% | 1014.2 hPa | 0 mm | - | - | - |
* Rain latest hour (hover to see other rain measurements)
** Current wind speed in m/s (hover to see current wind gust speed)